Time;durP1;ratioP1;P1;durP2;ratioP2;P2;SDS_P1;SDS_P2;PMS_P1;PMS_P2;Temp;Humidity;BMP_temperature;BMP_pressure;BME280_temperature;BME280_humidity;BME280_pressure;Samples;Min_cycle;Max_cycle;Signal;HPM_P1;HPM_P2
2023/11/15 00:00:06;;;;;;;8.77;4.47;;;;;;;9.23;54.40;93512.03;4954512;28;20070;-76
2023/11/15 00:02:35;;;;;;;7.80;4.70;;;;;;;9.25;54.70;93498.44;4954813;28;20091;-75
2023/11/15 00:05:01;;;;;;;12.45;4.72;;;;;;;9.26;54.45;93484.88;4959044;28;20494;-76
2023/11/15 00:07:26;;;;;;;8.75;5.15;;;;;;;9.29;54.35;93481.59;4958155;28;20314;-75
2023/11/15 00:09:53;;;;;;;13.35;5.07;;;;;;;9.23;54.52;93458.97;4955216;28;20446;-75
2023/11/15 00:12:19;;;;;;;8.60;4.82;;;;;;;9.40;54.28;93472.22;4953814;28;20709;-76
2023/11/15 00:14:45;;;;;;;10.20;4.50;;;;;;;9.39;54.30;93475.97;4957267;28;20039;-75
2023/11/15 00:17:11;;;;;;;8.15;4.15;;;;;;;9.44;54.50;93497.03;4956873;28;20600;-75
2023/11/15 00:19:37;;;;;;;7.97;4.20;;;;;;;9.42;54.37;93477.22;4957131;28;20035;-75
2023/11/15 00:22:04;;;;;;;11.57;4.70;;;;;;;9.50;53.74;93487.06;4958089;28;20378;-75
2023/11/15 00:24:30;;;;;;;9.30;3.83;;;;;;;9.60;53.83;93493.91;4952293;28;20931;-75
2023/11/15 00:26:57;;;;;;;7.22;4.45;;;;;;;9.66;53.59;93487.34;4956869;28;20332;-75
2023/11/15 00:29:24;;;;;;;6.82;4.00;;;;;;;9.56;53.85;93464.56;4953987;28;20082;-75
2023/11/15 00:31:49;;;;;;;7.97;4.43;;;;;;;9.58;53.56;93459.75;4950529;28;20043;-75
2023/11/15 00:34:14;;;;;;;9.15;4.47;;;;;;;9.61;53.71;93472.38;4955805;28;20022;-75
2023/11/15 00:36:44;;;;;;;7.25;4.07;;;;;;;9.65;53.45;93459.25;4955684;28;20019;-75
2023/11/15 00:39:10;;;;;;;8.95;4.55;;;;;;;9.77;53.72;93470.00;4955060;28;20117;-75
2023/11/15 00:41:36;;;;;;;7.82;4.75;;;;;;;9.79;53.54;93481.09;4945079;28;20043;-76
2023/11/15 00:44:06;;;;;;;9.20;5.00;;;;;;;9.71;53.26;93473.91;4953500;28;20035;-75
2023/11/15 00:46:35;;;;;;;13.93;6.95;;;;;;;9.54;54.26;93495.94;4949317;28;20515;-74
2023/11/15 00:49:02;;;;;;;10.05;4.97;;;;;;;9.43;54.13;93474.28;4956083;28;20528;-75
2023/11/15 00:51:28;;;;;;;8.80;3.95;;;;;;;9.45;54.11;93482.69;4955991;28;20227;-76
2023/11/15 00:53:53;;;;;;;10.23;4.85;;;;;;;9.48;54.15;93494.56;4956288;28;20122;-74
2023/11/15 00:56:19;;;;;;;5.85;3.53;;;;;;;9.44;54.10;93486.44;4952223;28;20390;-75
2023/11/15 00:58:44;;;;;;;8.20;4.10;;;;;;;9.19;54.68;93457.25;4956783;28;20691;-76
2023/11/15 01:01:11;;;;;;;10.68;4.70;;;;;;;9.20;55.25;93450.84;4958252;28;20488;-76
2023/11/15 01:03:45;;;;;;;8.20;4.03;;;;;;;9.13;55.15;93453.19;4957650;28;20031;-75
2023/11/15 01:06:11;;;;;;;7.77;3.87;;;;;;;9.25;55.11;93466.59;4957221;28;20494;-75
2023/11/15 01:08:37;;;;;;;8.52;3.85;;;;;;;9.17;55.33;93476.13;4953818;28;20211;-75
2023/11/15 01:11:05;;;;;;;5.32;3.60;;;;;;;9.04;55.31;93469.09;4955416;28;20509;-75
2023/11/15 01:13:32;;;;;;;7.25;4.03;;;;;;;9.17;55.50;93441.66;4955887;28;20042;-76
2023/11/15 01:15:58;;;;;;;8.48;3.70;;;;;;;9.10;55.16;93436.00;4950381;28;20121;-75
2023/11/15 01:18:24;;;;;;;8.13;4.15;;;;;;;8.93;55.98;93425.38;4958412;28;20042;-75
2023/11/15 01:20:51;;;;;;;6.30;3.58;;;;;;;9.00;55.64;93434.44;4953495;28;20035;-76
2023/11/15 01:23:17;;;;;;;6.25;3.75;;;;;;;8.53;57.25;93420.19;4958021;28;20537;-75
2023/11/15 01:25:42;;;;;;;7.30;4.10;;;;;;;8.24;58.28;93430.56;4955610;28;20486;-76
2023/11/15 01:28:08;;;;;;;11.48;5.57;;;;;;;8.29;58.61;93425.13;4957954;28;20029;-75
2023/11/15 01:30:33;;;;;;;13.32;4.57;;;;;;;8.23;59.36;93436.94;4952749;28;20620;-74
2023/11/15 01:32:59;;;;;;;8.02;5.25;;;;;;;8.20;59.64;93429.63;4953982;28;20031;-76
2023/11/15 01:35:24;;;;;;;8.57;5.43;;;;;;;8.63;58.16;93428.94;4952108;28;20103;-76
2023/11/15 01:37:51;;;;;;;13.75;6.80;;;;;;;8.76;57.64;93430.66;4951577;28;20113;-75
2023/11/15 01:40:19;;;;;;;15.82;5.85;;;;;;;8.97;56.92;93429.75;4953689;28;20627;-75
2023/11/15 01:42:48;;;;;;;11.13;5.45;;;;;;;9.03;56.20;93414.47;4952829;28;21111;-76
2023/11/15 01:45:14;;;;;;;8.27;5.18;;;;;;;9.09;55.83;93417.75;4951778;28;20115;-75
2023/11/15 01:47:41;;;;;;;10.98;5.22;;;;;;;9.10;56.37;93409.47;4952337;28;20038;-75
2023/11/15 01:50:10;;;;;;;11.95;5.53;;;;;;;8.97;56.95;93415.72;4952615;28;20121;-75
2023/11/15 01:52:44;;;;;;;9.75;4.88;;;;;;;8.94;56.87;93408.41;4954749;28;20707;-75
2023/11/15 01:55:13;;;;;;;9.32;5.25;;;;;;;9.08;56.62;93403.69;4964182;28;20029;-75
2023/11/15 01:57:39;;;;;;;13.05;5.05;;;;;;;8.79;56.88;93377.03;4948780;28;20030;-75
2023/11/15 02:00:07;;;;;;;12.48;5.43;;;;;;;8.18;59.71;93380.66;4954343;28;20044;-76
2023/11/15 02:02:32;;;;;;;9.60;5.60;;;;;;;8.29;59.09;93374.00;4956261;28;20367;-74
2023/11/15 02:04:58;;;;;;;13.00;6.13;;;;;;;8.13;59.41;93381.59;4955665;28;20038;-75
2023/11/15 02:07:23;;;;;;;12.18;6.40;;;;;;;8.30;58.83;93357.03;4955035;28;20073;-75
2023/11/15 02:09:49;;;;;;;12.48;5.47;;;;;;;8.21;59.06;93354.38;4958131;28;20027;-75
2023/11/15 02:12:15;;;;;;;10.77;4.95;;;;;;;8.27;59.01;93342.50;4952576;28;20442;-75
2023/11/15 02:14:41;;;;;;;12.23;6.53;;;;;;;8.04;60.50;93341.06;4955361;28;20041;-74
2023/11/15 02:17:07;;;;;;;9.32;5.55;;;;;;;7.77;61.27;93298.97;4953704;28;20195;-77
2023/11/15 02:19:32;;;;;;;13.43;5.63;;;;;;;7.36;63.06;93307.16;4956515;28;20397;-74
2023/11/15 02:21:58;;;;;;;10.05;5.68;;;;;;;7.52;63.83;93337.44;4955124;28;20058;-74
2023/11/15 02:24:23;;;;;;;13.43;5.40;;;;;;;7.41;63.93;93299.88;4954531;28;20039;-74
2023/11/15 02:26:49;;;;;;;12.60;5.50;;;;;;;7.57;63.49;93340.75;4950739;28;20049;-75
2023/11/15 02:29:14;;;;;;;9.82;5.65;;;;;;;7.52;64.12;93319.69;4950986;28;20089;-74
2023/11/15 02:31:39;;;;;;;8.40;5.70;;;;;;;7.76;62.51;93281.50;4945391;28;20122;-76
2023/11/15 02:34:05;;;;;;;9.50;5.25;;;;;;;7.53;63.13;93276.25;4949305;28;20031;-75
2023/11/15 02:36:30;;;;;;;13.43;5.65;;;;;;;7.73;64.15;93291.59;4953743;28;20122;-75
2023/11/15 02:38:56;;;;;;;10.90;6.15;;;;;;;7.29;65.15;93307.59;4948870;28;20378;-75
2023/11/15 02:41:22;;;;;;;11.73;6.43;;;;;;;7.41;64.27;93315.75;4934400;28;20054;-75
2023/11/15 02:43:48;;;;;;;10.73;7.03;;;;;;;7.51;64.46;93326.06;4938204;28;20505;-75
2023/11/15 02:46:22;;;;;;;11.73;6.32;;;;;;;7.18;64.09;93357.34;4955289;28;20034;-76
2023/11/15 02:48:51;;;;;;;10.68;7.55;;;;;;;7.17;65.69;93337.28;4955855;28;20069;-76
2023/11/15 02:51:16;;;;;;;11.35;7.10;;;;;;;7.18;65.14;93301.81;4953192;28;20101;-74
2023/11/15 02:53:43;;;;;;;12.73;8.00;;;;;;;7.47;63.40;93332.28;4952699;28;20498;-74
2023/11/15 02:56:09;;;;;;;20.10;9.75;;;;;;;7.69;63.27;93340.94;4956618;28;20531;-75
2023/11/15 02:58:34;;;;;;;12.48;7.72;;;;;;;7.68;62.71;93320.06;4951110;28;20039;-75
2023/11/15 03:01:00;;;;;;;11.27;7.18;;;;;;;7.60;62.83;93345.41;4955345;28;20026;-75
2023/11/15 03:03:25;;;;;;;14.68;8.68;;;;;;;7.40;63.92;93353.88;4947844;28;20370;-75
2023/11/15 03:05:51;;;;;;;14.77;7.10;;;;;;;7.20;64.77;93318.13;4935569;28;20138;-75
2023/11/15 03:08:16;;;;;;;10.93;6.65;;;;;;;7.32;63.99;93307.00;4943757;28;20126;-75
2023/11/15 03:10:43;;;;;;;10.77;6.30;;;;;;;7.68;63.65;93357.88;4953836;28;20028;-75
2023/11/15 03:13:08;;;;;;;11.88;6.45;;;;;;;7.54;63.69;93349.28;4953681;28;20047;-75
2023/11/15 03:15:35;;;;;;;10.23;6.32;;;;;;;7.75;63.21;93362.00;4952984;28;20126;-74
2023/11/15 03:18:00;;;;;;;14.65;6.20;;;;;;;7.88;62.79;93372.47;4957213;28;20121;-75
2023/11/15 03:20:26;;;;;;;9.63;5.13;;;;;;;7.90;62.13;93316.56;4953179;28;20037;-75
2023/11/15 03:22:51;;;;;;;7.70;5.15;;;;;;;8.04;62.03;93354.31;4956310;28;20129;-75
2023/11/15 03:25:17;;;;;;;10.10;5.97;;;;;;;8.34;61.51;93374.66;4957292;28;20034;-75
2023/11/15 03:27:43;;;;;;;11.77;5.75;;;;;;;8.14;61.18;93296.53;4958492;28;20105;-75
2023/11/15 03:30:08;;;;;;;11.45;5.20;;;;;;;8.14;61.25;93332.84;4959080;28;20141;-75
2023/11/15 03:32:34;;;;;;;10.32;6.13;;;;;;;8.32;60.69;93323.03;4957069;28;20039;-75
2023/11/15 03:34:59;;;;;;;10.07;5.30;;;;;;;8.46;60.03;93287.34;4956969;28;20303;-75
2023/11/15 03:37:25;;;;;;;7.60;4.47;;;;;;;8.83;59.54;93316.97;4954620;28;20378;-75
2023/11/15 03:39:50;;;;;;;13.23;5.78;;;;;;;8.96;59.04;93326.63;4956955;28;20045;-75
2023/11/15 03:42:16;;;;;;;11.27;4.93;;;;;;;8.90;59.02;93318.03;4954742;28;20035;-76
2023/11/15 03:44:41;;;;;;;9.85;4.93;;;;;;;9.16;57.95;93338.47;4956422;28;20050;-75
2023/11/15 03:47:07;;;;;;;9.05;4.68;;;;;;;8.69;58.78;93284.56;4958472;28;20347;-74
2023/11/15 03:49:33;;;;;;;10.38;4.93;;;;;;;8.86;58.10;93333.03;4953054;28;20509;-75
2023/11/15 03:51:58;;;;;;;11.65;5.13;;;;;;;8.97;58.14;93321.00;4956791;28;20400;-75
2023/11/15 03:54:24;;;;;;;8.95;3.97;;;;;;;8.94;58.15;93297.00;4955243;28;20035;-76
2023/11/15 03:56:50;;;;;;;7.72;5.03;;;;;;;8.67;58.28;93254.91;4956139;28;20057;-75
2023/11/15 03:59:15;;;;;;;7.50;5.15;;;;;;;8.96;58.13;93311.50;4955419;28;20043;-75
2023/11/15 04:01:41;;;;;;;11.55;5.70;;;;;;;8.91;58.41;93298.41;4954756;28;20555;-75
2023/11/15 04:04:06;;;;;;;8.13;4.70;;;;;;;8.84;58.51;93270.81;4959469;28;20030;-75
2023/11/15 04:06:32;;;;;;;8.02;4.40;;;;;;;9.00;58.77;93263.91;4954553;28;20039;-75
2023/11/15 04:08:58;;;;;;;7.97;4.40;;;;;;;9.03;58.14;93303.84;4959100;28;20042;-75
2023/11/15 04:11:26;;;;;;;9.50;4.22;;;;;;;8.72;59.13;93283.91;4954339;28;20043;-77
2023/11/15 04:13:53;;;;;;;9.25;4.32;;;;;;;8.45;59.86;93232.03;4959417;28;20097;-75
2023/11/15 04:16:18;;;;;;;8.38;4.10;;;;;;;8.32;60.90;93270.06;4956668;28;20031;-75
2023/11/15 04:18:44;;;;;;;9.55;4.47;;;;;;;8.70;60.01;93259.59;4958384;28;20035;-76
2023/11/15 04:21:09;;;;;;;7.53;4.40;;;;;;;8.27;60.29;93203.97;4956730;28;20042;-77
2023/11/15 04:23:35;;;;;;;10.40;5.18;;;;;;;7.82;61.54;93222.03;4957231;28;20035;-75
2023/11/15 04:26:00;;;;;;;8.30;4.65;;;;;;;8.10;60.98;93286.88;4958977;28;20027;-75
2023/11/15 04:28:26;;;;;;;9.63;5.25;;;;;;;8.22;61.84;93263.19;4953023;28;20041;-75
2023/11/15 04:30:52;;;;;;;4.80;3.72;;;;;;;7.90;62.43;93248.53;4956229;28;20034;-75
2023/11/15 04:33:18;;;;;;;11.25;4.30;;;;;;;8.16;61.51;93267.09;4952908;28;20517;-76
2023/11/15 04:35:43;;;;;;;11.35;4.45;;;;;;;8.09;61.79;93256.97;4953070;28;20527;-75
2023/11/15 04:38:09;;;;;;;7.97;4.53;;;;;;;8.21;61.58;93210.53;4959287;28;20035;-75
2023/11/15 04:40:37;;;;;;;7.18;4.55;;;;;;;7.62;63.54;93269.16;4956086;28;20031;-75
2023/11/15 04:43:04;;;;;;;12.18;5.15;;;;;;;7.87;62.76;93204.16;4956428;28;20041;-75
2023/11/15 04:45:30;;;;;;;6.63;4.53;;;;;;;7.75;63.62;93192.59;4944977;28;20134;-75
2023/11/15 04:47:55;;;;;;;9.45;4.72;;;;;;;7.82;62.82;93253.81;4943859;28;20418;-75
2023/11/15 04:50:22;;;;;;;9.10;4.30;;;;;;;7.87;63.38;93256.31;4956643;28;20078;-75
2023/11/15 04:52:47;;;;;;;9.73;4.22;;;;;;;8.09;62.61;93177.50;4955044;28;20114;-76
2023/11/15 04:55:13;;;;;;;7.07;4.18;;;;;;;8.36;61.32;93232.03;4952655;28;20034;-75
2023/11/15 04:57:39;;;;;;;11.30;4.10;;;;;;;8.13;61.61;93239.34;4955925;28;20022;-76
2023/11/15 05:00:09;;;;;;;7.78;5.35;;;;;;;8.12;62.16;93219.25;4953572;28;20249;-76
2023/11/15 05:02:35;;;;;;;13.60;6.85;;;;;;;8.44;61.81;93220.66;4954394;28;20058;-75
2023/11/15 05:05:00;;;;;;;9.27;3.90;;;;;;;8.66;60.63;93208.31;4952039;28;20520;-75
2023/11/15 05:07:26;;;;;;;7.32;4.30;;;;;;;8.65;60.38;93204.09;4955121;28;20034;-75
2023/11/15 05:09:51;;;;;;;7.18;4.00;;;;;;;8.75;59.95;93262.88;4954477;28;20026;-75
2023/11/15 05:12:17;;;;;;;9.07;3.65;;;;;;;8.49;60.58;93191.34;4954198;28;20075;-75
2023/11/15 05:14:43;;;;;;;7.43;3.58;;;;;;;8.86;59.72;93199.66;4951359;28;20039;-75
2023/11/15 05:17:09;;;;;;;9.45;4.68;;;;;;;8.87;59.63;93190.63;4935765;28;20047;-76
2023/11/15 05:19:36;;;;;;;5.85;3.45;;;;;;;9.03;59.16;93216.31;4936071;28;20530;-75
2023/11/15 05:22:03;;;;;;;6.50;3.15;;;;;;;9.08;58.60;93196.81;4945194;28;20070;-75
2023/11/15 05:24:28;;;;;;;9.38;3.47;;;;;;;9.34;58.00;93205.44;4953509;28;20035;-75
2023/11/15 05:26:55;;;;;;;6.85;3.85;;;;;;;9.11;58.39;93205.97;4954001;28;20105;-75
2023/11/15 05:29:21;;;;;;;10.70;3.25;;;;;;;9.47;57.42;93208.22;4955339;28;20077;-76
2023/11/15 05:31:46;;;;;;;5.70;2.97;;;;;;;9.54;57.28;93208.47;4952079;28;20043;-75
2023/11/15 05:34:12;;;;;;;4.50;2.97;;;;;;;9.60;56.98;93188.59;4954860;28;20627;-75
2023/11/15 05:36:37;;;;;;;5.25;3.20;;;;;;;9.73;56.78;93201.63;4956908;28;20462;-75
2023/11/15 05:39:03;;;;;;;4.47;3.42;;;;;;;9.67;56.63;93180.94;4953019;28;20217;-75
2023/11/15 05:41:28;;;;;;;7.45;4.55;;;;;;;9.74;56.85;93181.97;4952591;28;20050;-76
2023/11/15 05:43:54;;;;;;;10.00;4.63;;;;;;;9.72;56.76;93180.75;4956588;28;20063;-75
2023/11/15 05:46:20;;;;;;;10.30;5.90;;;;;;;9.82;57.01;93198.94;4953414;28;20030;-75
2023/11/15 05:48:46;;;;;;;8.93;5.15;;;;;;;9.57;56.90;93160.84;4950664;28;20504;-76
2023/11/15 05:51:12;;;;;;;13.82;6.03;;;;;;;9.61;56.87;93172.38;4953175;28;20037;-75
2023/11/15 05:53:38;;;;;;;14.88;6.82;;;;;;;9.23;58.21;93241.41;4954647;28;20069;-75
2023/11/15 05:56:04;;;;;;;12.45;5.22;;;;;;;8.95;59.50;93211.06;4955283;28;20043;-75
2023/11/15 05:58:30;;;;;;;8.60;4.78;;;;;;;9.26;59.08;93182.38;4954125;28;20039;-75
2023/11/15 06:00:56;;;;;;;14.18;5.18;;;;;;;9.32;58.66;93202.34;4953356;28;20296;-74
2023/11/15 06:03:21;;;;;;;11.50;4.07;;;;;;;9.23;58.48;93198.97;4953899;28;20039;-75
2023/11/15 06:05:47;;;;;;;11.30;4.22;;;;;;;9.30;58.75;93178.00;4951266;28;20048;-76
2023/11/15 06:08:13;;;;;;;5.28;3.50;;;;;;;9.37;58.69;93190.78;4944185;28;20536;-76
2023/11/15 06:10:38;;;;;;;7.05;3.45;;;;;;;9.55;58.73;93188.78;4944923;28;20519;-75
2023/11/15 06:13:06;;;;;;;6.50;4.40;;;;;;;9.74;57.87;93186.50;4945150;28;20313;-76
2023/11/15 06:15:32;;;;;;;7.05;4.32;;;;;;;9.60;57.93;93165.50;4943430;28;20035;-75
2023/11/15 06:17:57;;;;;;;6.43;3.33;;;;;;;9.66;57.86;93190.75;4950253;28;20130;-76
2023/11/15 06:20:23;;;;;;;4.97;3.58;;;;;;;9.96;57.19;93212.75;4946337;28;20069;-76
2023/11/15 06:22:50;;;;;;;6.60;2.97;;;;;;;10.25;56.58;93188.78;4944486;28;20046;-75
2023/11/15 06:25:18;;;;;;;5.47;3.45;;;;;;;10.42;56.55;93182.56;4944726;28;20058;-76
2023/11/15 06:27:45;;;;;;;9.63;3.30;;;;;;;10.41;55.84;93159.75;4948284;28;20486;-75
2023/11/15 06:30:12;;;;;;;6.50;2.92;;;;;;;10.52;55.67;93210.63;4946079;28;20376;-75
2023/11/15 06:32:38;;;;;;;3.67;2.35;;;;;;;10.24;55.45;93199.72;4945946;28;20038;-75
2023/11/15 06:35:05;;;;;;;5.13;2.38;;;;;;;10.42;56.18;93157.84;4946964;28;20497;-75
2023/11/15 06:37:33;;;;;;;8.68;3.25;;;;;;;10.55;56.23;93184.16;4952447;28;20066;-75
2023/11/15 06:39:59;;;;;;;7.20;2.92;;;;;;;10.40;55.54;93214.03;4953316;28;20125;-75
2023/11/15 06:42:25;;;;;;;9.52;3.10;;;;;;;10.37;56.05;93187.31;4948505;28;20043;-76
2023/11/15 06:44:51;;;;;;;5.95;3.05;;;;;;;10.59;55.96;93211.66;4933205;28;20518;-75
2023/11/15 06:47:16;;;;;;;10.40;2.95;;;;;;;10.91;55.67;93223.38;4942577;28;20050;-75
2023/11/15 06:49:42;;;;;;;7.57;4.15;;;;;;;10.94;55.27;93201.47;4950590;28;20128;-75
2023/11/15 06:52:08;;;;;;;8.00;3.05;;;;;;;11.02;55.05;93224.53;4952106;28;20516;-75
2023/11/15 06:54:33;;;;;;;8.43;3.22;;;;;;;10.77;54.99;93212.25;4952166;28;20153;-76
2023/11/15 06:56:59;;;;;;;10.13;3.67;;;;;;;10.85;55.27;93210.63;4958178;28;20445;-76
2023/11/15 06:59:25;;;;;;;8.43;4.00;;;;;;;11.07;55.00;93200.38;4953872;28;20628;-76
2023/11/15 07:01:52;;;;;;;5.60;3.10;;;;;;;11.33;54.31;93207.28;4956161;28;20405;-76
2023/11/15 07:04:19;;;;;;;7.82;3.17;;;;;;;10.84;55.55;93204.53;4958076;28;20019;-76
2023/11/15 07:06:46;;;;;;;7.05;3.42;;;;;;;11.04;55.25;93225.00;4956534;28;20034;-76
2023/11/15 07:09:12;;;;;;;8.80;3.38;;;;;;;10.91;55.81;93215.41;4957242;28;20043;-76
2023/11/15 07:11:51;;;;;;;6.22;4.07;;;;;;;10.84;55.67;93233.78;4956865;28;20444;-76
2023/11/15 07:14:17;;;;;;;5.93;2.58;;;;;;;10.84;55.66;93222.38;4970700;28;20521;-75
2023/11/15 07:16:55;;;;;;;5.70;2.70;;;;;;;10.50;56.40;93194.22;4957775;28;20071;-75
2023/11/15 07:19:21;;;;;;;3.78;2.42;;;;;;;10.42;56.66;93211.00;4956804;28;20557;-75
2023/11/15 07:21:46;;;;;;;4.68;2.58;;;;;;;10.50;56.83;93212.84;4951385;28;20049;-75
2023/11/15 07:24:12;;;;;;;8.48;4.35;;;;;;;10.45;56.89;93234.31;4956555;28;20059;-75
2023/11/15 07:26:38;;;;;;;8.05;2.60;;;;;;;10.32;57.37;93204.97;4958358;28;20402;-75
2023/11/15 07:29:06;;;;;;;7.00;2.65;;;;;;;10.45;57.20;93210.38;4954241;28;20537;-75
2023/11/15 07:31:32;;;;;;;7.95;2.83;;;;;;;10.58;56.28;93225.28;4959900;28;20438;-75
2023/11/15 07:33:59;;;;;;;6.13;2.50;;;;;;;10.53;56.46;93199.66;4955784;28;20516;-75
2023/11/15 07:36:27;;;;;;;7.25;2.92;;;;;;;10.90;55.92;93218.41;4956872;28;20624;-76
2023/11/15 07:38:53;;;;;;;7.63;2.55;;;;;;;10.82;56.27;93222.69;4955538;28;20094;-76
2023/11/15 07:41:18;;;;;;;6.03;3.30;;;;;;;10.84;55.86;93206.41;4959606;28;20043;-75
2023/11/15 07:43:46;;;;;;;4.47;2.85;;;;;;;10.93;55.27;93210.53;4955946;28;20291;-75
2023/11/15 07:46:12;;;;;;;6.50;2.80;;;;;;;11.12;55.31;93204.69;4957086;28;20030;-76
2023/11/15 07:48:39;;;;;;;6.32;3.08;;;;;;;11.13;54.88;93203.59;4957969;28;20399;-75
2023/11/15 07:51:05;;;;;;;6.22;2.78;;;;;;;11.22;55.26;93222.13;4955856;28;20050;-75
2023/11/15 07:53:32;;;;;;;6.68;2.33;;;;;;;11.22;54.80;93206.94;4961051;28;20031;-75
2023/11/15 07:55:58;;;;;;;5.15;2.75;;;;;;;11.50;54.57;93218.47;4956302;28;20233;-76
2023/11/15 07:58:26;;;;;;;5.10;3.08;;;;;;;11.79;54.33;93208.72;4954090;28;20027;-76
2023/11/15 08:00:52;;;;;;;3.97;2.30;;;;;;;11.73;53.24;93221.53;4961637;28;20777;-77
2023/11/15 08:03:19;;;;;;;9.15;3.13;;;;;;;11.88;52.90;93226.16;4956782;28;20047;-76
2023/11/15 08:05:47;;;;;;;12.85;3.80;;;;;;;11.47;53.92;93216.50;4957959;28;20175;-75
2023/11/15 08:08:14;;;;;;;7.28;2.83;;;;;;;11.61;53.72;93213.53;4953800;28;20050;-76
2023/11/15 08:10:43;;;;;;;11.13;2.90;;;;;;;11.48;54.20;93187.97;4955850;28;20035;-74
2023/11/15 08:13:08;;;;;;;9.07;3.15;;;;;;;11.60;54.13;93201.31;4956696;28;20027;-76
2023/11/15 08:15:35;;;;;;;5.78;2.97;;;;;;;11.45;54.18;93208.06;4958368;28;20039;-76
2023/11/15 08:18:01;;;;;;;5.18;2.88;;;;;;;11.68;53.96;93213.75;4956241;28;20034;-77
2023/11/15 08:20:26;;;;;;;9.10;2.90;;;;;;;11.64;53.88;93185.47;4955351;28;20042;-75
2023/11/15 08:22:52;;;;;;;10.45;2.72;;;;;;;12.07;53.57;93230.16;4956962;28;20046;-75
2023/11/15 08:25:17;;;;;;;8.75;3.22;;;;;;;11.97;53.60;93216.16;4956378;28;20395;-75
2023/11/15 08:27:43;;;;;;;8.88;2.88;;;;;;;11.91;53.68;93206.84;4956338;28;20438;-76
2023/11/15 08:30:12;;;;;;;11.70;3.33;;;;;;;11.96;53.76;93222.59;4955638;28;20057;-76
2023/11/15 08:32:41;;;;;;;9.02;2.72;;;;;;;11.88;53.91;93191.50;4959245;28;20502;-75
2023/11/15 08:35:07;;;;;;;5.97;3.28;;;;;;;11.73;53.42;93199.44;4952210;28;20035;-77
2023/11/15 08:37:32;;;;;;;4.90;2.78;;;;;;;12.12;53.01;93232.59;4905994;28;20072;-77
2023/11/15 08:39:59;;;;;;;7.18;2.58;;;;;;;12.13;52.43;93202.13;4937107;28;20027;-77
2023/11/15 08:42:26;;;;;;;10.05;3.85;;;;;;;12.12;53.53;93229.91;4943620;28;20053;-76
2023/11/15 08:44:53;;;;;;;8.15;3.30;;;;;;;11.98;52.88;93220.38;4945957;28;20035;-76
2023/11/15 08:47:20;;;;;;;9.02;3.47;;;;;;;12.11;53.04;93239.03;4949031;28;20052;-76
2023/11/15 08:49:45;;;;;;;9.25;3.35;;;;;;;12.21;53.17;93262.56;4947885;28;20552;-76
2023/11/15 08:52:10;;;;;;;11.48;4.05;;;;;;;12.10;53.92;93246.25;4948284;28;20033;-76
2023/11/15 08:54:37;;;;;;;11.18;4.43;;;;;;;12.39;52.91;93263.84;4948753;28;20019;-76
2023/11/15 08:57:03;;;;;;;10.27;5.45;;;;;;;12.45;53.33;93267.84;4946882;28;20048;-77
2023/11/15 08:59:29;;;;;;;15.32;5.15;;;;;;;12.81;52.72;93270.41;4950543;28;20826;-76
2023/11/15 09:01:55;;;;;;;11.23;5.85;;;;;;;13.01;51.55;93257.19;4949185;28;20039;-76
2023/11/15 09:04:20;;;;;;;14.18;5.35;;;;;;;12.92;51.74;93259.25;4951159;28;20023;-76
2023/11/15 09:06:51;;;;;;;13.18;4.88;;;;;;;12.73;52.17;93243.88;4955815;28;20482;-75
2023/11/15 09:09:16;;;;;;;8.00;4.00;;;;;;;12.92;51.62;93241.34;4953440;28;20581;-75
2023/11/15 09:11:42;;;;;;;9.43;5.50;;;;;;;12.92;52.18;93249.34;4955101;28;20050;-75
2023/11/15 09:14:09;;;;;;;12.05;5.45;;;;;;;13.22;51.51;93266.56;4954032;28;20425;-75
2023/11/15 09:16:38;;;;;;;10.80;6.00;;;;;;;13.04;51.39;93261.88;4952666;28;21282;-75
2023/11/15 09:19:04;;;;;;;12.95;6.45;;;;;;;12.57;52.98;93297.13;4952288;28;20035;-76
2023/11/15 09:21:33;;;;;;;16.48;6.90;;;;;;;12.70;53.25;93301.38;4968212;28;21373;-77
2023/11/15 09:23:59;;;;;;;14.68;6.20;;;;;;;12.69;53.02;93283.81;4953492;28;20046;-76
2023/11/15 09:26:25;;;;;;;13.95;7.18;;;;;;;13.03;52.17;93314.47;4952897;28;20654;-76
2023/11/15 09:28:51;;;;;;;18.05;6.22;;;;;;;13.13;51.37;93318.56;4953915;28;20038;-77
2023/11/15 09:31:17;;;;;;;14.73;6.80;;;;;;;13.37;51.03;93329.13;4957168;28;20023;-76
2023/11/15 09:33:43;;;;;;;10.77;5.85;;;;;;;13.38;50.66;93328.00;4957330;28;20073;-76
2023/11/15 09:36:10;;;;;;;12.60;6.55;;;;;;;13.52;50.61;93347.06;4953121;28;20042;-76
2023/11/15 09:38:36;;;;;;;12.30;6.03;;;;;;;13.40;50.54;93341.78;4958955;28;20211;-76
2023/11/15 09:41:10;;;;;;;9.57;6.45;;;;;;;13.64;50.99;93371.06;4958301;28;20501;-77
2023/11/15 09:43:36;;;;;;;19.25;6.30;;;;;;;13.56;51.02;93373.88;4953357;28;20548;-76
2023/11/15 09:46:08;;;;;;;17.50;5.60;;;;;;;13.43;52.34;93383.06;4952631;28;20034;-75
2023/11/15 09:48:34;;;;;;;11.60;4.53;;;;;;;13.56;53.95;93392.59;4968608;28;20121;-77
2023/11/15 09:51:01;;;;;;;7.93;4.53;;;;;;;13.32;56.31;93412.16;4967790;28;20615;-77
2023/11/15 09:53:28;;;;;;;12.90;6.50;;;;;;;12.12;62.32;93405.84;4953476;28;20098;-76
2023/11/15 09:55:54;;;;;;;9.95;3.53;;;;;;;11.54;67.65;93397.81;4952255;28;20316;-76
2023/11/15 09:58:21;;;;;;;5.82;2.90;;;;;;;11.61;68.68;93413.28;4946020;28;20146;-76
2023/11/15 10:00:47;;;;;;;7.63;2.50;;;;;;;11.38;69.80;93409.41;4933136;28;20508;-76
2023/11/15 10:03:18;;;;;;;6.13;3.10;;;;;;;11.50;70.59;93412.09;4943433;28;20047;-76
2023/11/15 10:05:57;;;;;;;4.75;2.67;;;;;;;11.43;70.56;93402.00;4948368;28;20440;-75
2023/11/15 10:08:23;;;;;;;3.85;2.28;;;;;;;11.59;70.29;93407.50;4942300;28;20067;-76
2023/11/15 10:11:04;;;;;;;4.65;2.75;;;;;;;11.61;69.73;93399.97;4950332;28;20089;-76
2023/11/15 10:13:30;;;;;;;4.43;2.78;;;;;;;11.70;69.77;93407.84;4948362;28;20043;-75
2023/11/15 10:15:55;;;;;;;3.35;2.50;;;;;;;11.55;70.58;93412.69;4943500;28;20305;-77
2023/11/15 10:18:38;;;;;;;2.80;1.73;;;;;;;11.55;70.61;93422.56;4943457;28;20529;-76
2023/11/15 10:21:07;;;;;;;3.65;1.33;;;;;;;11.55;70.75;93430.56;4945850;28;20719;-76
2023/11/15 10:23:33;;;;;;;1.48;0.90;;;;;;;11.39;70.56;93418.94;4950347;28;20502;-75
2023/11/15 10:26:00;;;;;;;1.38;0.90;;;;;;;11.32;71.27;93429.34;4932495;28;20047;-76
2023/11/15 10:28:32;;;;;;;1.10;0.95;;;;;;;11.37;71.02;93453.09;4930284;28;20153;-76
2023/11/15 10:31:06;;;;;;;1.13;0.98;;;;;;;11.37;70.98;93453.09;4947854;28;20836;-75
2023/11/15 10:33:34;;;;;;;0.70;0.70;;;;;;;11.01;71.09;93451.78;4940924;28;21187;-74
2023/11/15 10:36:16;;;;;;;1.10;0.57;;;;;;;10.92;72.34;93475.03;4947814;28;20799;-76
2023/11/15 10:38:44;;;;;;;0.50;0.50;;;;;;;11.04;71.25;93477.78;4947305;28;20098;-77
2023/11/15 10:41:17;;;;;;;0.60;0.60;;;;;;;11.01;71.12;93486.38;4943507;28;21275;-76
2023/11/15 10:43:49;;;;;;;2.75;1.60;;;;;;;10.82;71.69;93480.72;4948119;28;20038;-75
2023/11/15 10:46:18;;;;;;;0.98;0.80;;;;;;;10.92;71.52;93490.22;4938952;28;20037;-75
2023/11/15 10:48:45;;;;;;;1.20;0.95;;;;;;;10.89;71.54;93496.97;4934712;28;20137;-75
2023/11/15 10:51:23;;;;;;;0.90;0.70;;;;;;;10.73;72.36;93503.94;4939504;28;20047;-76
2023/11/15 10:53:50;;;;;;;0.70;0.70;;;;;;;10.76;71.46;93497.97;4941150;28;20145;-76
2023/11/15 10:56:17;;;;;;;1.77;1.63;;;;;;;10.56;71.70;93504.03;4930162;28;20039;-75
2023/11/15 10:58:47;;;;;;;0.50;0.50;;;;;;;10.44;72.43;93495.94;4933866;28;20042;-75
2023/11/15 11:01:17;;;;;;;0.50;0.50;;;;;;;10.41;71.67;93501.91;4944287;28;20030;-76
2023/11/15 11:03:54;;;;;;;0.70;0.70;;;;;;;10.22;72.42;93476.44;4943652;28;20034;-75
2023/11/15 11:06:47;;;;;;;1.33;1.10;;;;;;;10.65;72.23;93518.06;4940679;28;20399;-76
2023/11/15 11:09:22;;;;;;;1.95;1.60;;;;;;;10.44;71.86;93474.66;4940405;28;20523;-76
2023/11/15 11:12:12;;;;;;;1.73;0.90;;;;;;;10.72;70.62;93502.38;4938448;28;20078;-76
2023/11/15 11:14:39;;;;;;;2.33;1.70;;;;;;;10.78;71.03;93517.03;4935750;28;20141;-75
2023/11/15 11:17:35;;;;;;;4.20;2.50;;;;;;;10.83;70.99;93506.22;4940414;28;20347;-77
2023/11/15 11:20:02;;;;;;;1.30;1.10;;;;;;;10.47;72.54;93511.22;4932306;28;20131;-76
2023/11/15 11:22:29;;;;;;;2.65;1.00;;;;;;;10.57;72.37;93516.19;4943274;28;20097;-76
2023/11/15 11:25:07;;;;;;;1.85;1.33;;;;;;;10.55;72.29;93521.06;4944105;28;20255;-76
2023/11/15 11:27:42;;;;;;;3.35;1.30;;;;;;;10.38;72.95;93529.09;4938535;28;20047;-75
2023/11/15 11:30:11;;;;;;;0.80;0.80;;;;;;;10.33;72.56;93528.16;4942133;28;20116;-76
2023/11/15 11:32:41;;;;;;;0.60;0.60;;;;;;;10.27;73.18;93529.41;4944319;28;20556;-76